sensor_id;sensor_type;location;lat;lon;timestamp;P1;durP1;ratioP1;P2;durP2;ratioP2
81154;SDS011;70631;50.436;7.826;2023-12-22T00:02:51;6.17;;;0.57;;
81154;SDS011;70631;50.436;7.826;2023-12-22T00:07:41;5.10;;;0.60;;
81154;SDS011;70631;50.436;7.826;2023-12-22T00:12:32;0.40;;;0.37;;
81154;SDS011;70631;50.436;7.826;2023-12-22T00:17:22;3.30;;;0.47;;
81154;SDS011;70631;50.436;7.826;2023-12-22T00:22:13;3.83;;;0.70;;
81154;SDS011;70631;50.436;7.826;2023-12-22T00:27:05;2.60;;;0.70;;
81154;SDS011;70631;50.436;7.826;2023-12-22T00:31:56;3.43;;;0.70;;
81154;SDS011;70631;50.436;7.826;2023-12-22T00:36:47;5.80;;;1.03;;
81154;SDS011;70631;50.436;7.826;2023-12-22T00:41:37;3.20;;;1.33;;
81154;SDS011;70631;50.436;7.826;2023-12-22T00:46:27;6.47;;;1.27;;
81154;SDS011;70631;50.436;7.826;2023-12-22T00:51:18;3.63;;;1.43;;
81154;SDS011;70631;50.436;7.826;2023-12-22T00:56:08;0.53;;;0.10;;
81154;SDS011;70631;50.436;7.826;2023-12-22T01:00:59;0.10;;;0.00;;
81154;SDS011;70631;50.436;7.826;2023-12-22T01:05:50;0.10;;;0.10;;
81154;SDS011;70631;50.436;7.826;2023-12-22T01:10:41;0.28;;;0.20;;
81154;SDS011;70631;50.436;7.826;2023-12-22T01:15:31;0.20;;;0.20;;
81154;SDS011;70631;50.436;7.826;2023-12-22T01:17:56;0.00;;;0.00;;
81154;SDS011;70631;50.436;7.826;2023-12-22T01:20:21;2.33;;;0.20;;
81154;SDS011;70631;50.436;7.826;2023-12-22T01:22:47;0.50;;;0.20;;
81154;SDS011;70631;50.436;7.826;2023-12-22T01:27:37;0.57;;;0.13;;
81154;SDS011;70631;50.436;7.826;2023-12-22T01:32:28;1.58;;;0.17;;
81154;SDS011;70631;50.436;7.826;2023-12-22T01:34:59;0.55;;;0.20;;
81154;SDS011;70631;50.436;7.826;2023-12-22T01:37:28;2.47;;;0.30;;
81154;SDS011;70631;50.436;7.826;2023-12-22T01:42:19;0.22;;;0.20;;
81154;SDS011;70631;50.436;7.826;2023-12-22T01:47:10;1.03;;;0.20;;
81154;SDS011;70631;50.436;7.826;2023-12-22T01:52:00;1.20;;;0.30;;
81154;SDS011;70631;50.436;7.826;2023-12-22T01:56:51;0.20;;;0.17;;
81154;SDS011;70631;50.436;7.826;2023-12-22T02:01:41;0.27;;;0.27;;
81154;SDS011;70631;50.436;7.826;2023-12-22T02:04:10;2.28;;;0.47;;
81154;SDS011;70631;50.436;7.826;2023-12-22T02:09:01;2.92;;;0.50;;
81154;SDS011;70631;50.436;7.826;2023-12-22T02:11:28;2.17;;;0.65;;
81154;SDS011;70631;50.436;7.826;2023-12-22T02:19:09;1.40;;;0.63;;
81154;SDS011;70631;50.436;7.826;2023-12-22T02:22:03;2.38;;;0.80;;
81154;SDS011;70631;50.436;7.826;2023-12-22T02:24:30;6.38;;;1.35;;
81154;SDS011;70631;50.436;7.826;2023-12-22T02:29:24;3.88;;;1.20;;
81154;SDS011;70631;50.436;7.826;2023-12-22T02:31:50;3.88;;;0.93;;
81154;SDS011;70631;50.436;7.826;2023-12-22T02:34:19;3.55;;;1.27;;
81154;SDS011;70631;50.436;7.826;2023-12-22T02:36:46;6.43;;;1.08;;
81154;SDS011;70631;50.436;7.826;2023-12-22T02:39:13;5.82;;;1.50;;
81154;SDS011;70631;50.436;7.826;2023-12-22T02:41:40;2.63;;;1.40;;
81154;SDS011;70631;50.436;7.826;2023-12-22T02:44:06;4.10;;;1.40;;
81154;SDS011;70631;50.436;7.826;2023-12-22T02:48:56;8.23;;;1.57;;
81154;SDS011;70631;50.436;7.826;2023-12-22T02:53:47;6.27;;;2.03;;
81154;SDS011;70631;50.436;7.826;2023-12-22T02:58:37;5.47;;;1.77;;
81154;SDS011;70631;50.436;7.826;2023-12-22T03:03:28;7.00;;;1.70;;
81154;SDS011;70631;50.436;7.826;2023-12-22T03:08:18;11.10;;;1.63;;
81154;SDS011;70631;50.436;7.826;2023-12-22T03:13:08;5.43;;;1.97;;
81154;SDS011;70631;50.436;7.826;2023-12-22T03:17:59;7.17;;;1.47;;
81154;SDS011;70631;50.436;7.826;2023-12-22T03:22:49;8.57;;;1.83;;
81154;SDS011;70631;50.436;7.826;2023-12-22T03:27:40;3.43;;;1.07;;
81154;SDS011;70631;50.436;7.826;2023-12-22T03:32:31;15.15;;;1.70;;
81154;SDS011;70631;50.436;7.826;2023-12-22T03:37:21;5.67;;;1.70;;
81154;SDS011;70631;50.436;7.826;2023-12-22T03:42:12;6.00;;;1.70;;
81154;SDS011;70631;50.436;7.826;2023-12-22T03:47:02;11.07;;;3.00;;
81154;SDS011;70631;50.436;7.826;2023-12-22T03:51:52;7.90;;;1.17;;
81154;SDS011;70631;50.436;7.826;2023-12-22T03:56:43;4.10;;;1.20;;
81154;SDS011;70631;50.436;7.826;2023-12-22T04:01:33;9.23;;;1.60;;
81154;SDS011;70631;50.436;7.826;2023-12-22T04:03:59;6.00;;;1.90;;
81154;SDS011;70631;50.436;7.826;2023-12-22T04:08:49;9.23;;;3.60;;
81154;SDS011;70631;50.436;7.826;2023-12-22T04:11:15;24.43;;;2.60;;
81154;SDS011;70631;50.436;7.826;2023-12-22T04:16:05;9.87;;;2.07;;
81154;SDS011;70631;50.436;7.826;2023-12-22T04:20:56;5.20;;;1.75;;
81154;SDS011;70631;50.436;7.826;2023-12-22T04:25:47;4.17;;;1.17;;
81154;SDS011;70631;50.436;7.826;2023-12-22T04:30:37;11.33;;;1.10;;
81154;SDS011;70631;50.436;7.826;2023-12-22T04:35:28;8.15;;;1.45;;
81154;SDS011;70631;50.436;7.826;2023-12-22T04:40:19;8.33;;;2.30;;
81154;SDS011;70631;50.436;7.826;2023-12-22T04:45:09;7.13;;;2.03;;
81154;SDS011;70631;50.436;7.826;2023-12-22T04:50:00;3.77;;;1.13;;
81154;SDS011;70631;50.436;7.826;2023-12-22T04:54:50;0.97;;;0.60;;
81154;SDS011;70631;50.436;7.826;2023-12-22T04:59:41;7.37;;;1.57;;
81154;SDS011;70631;50.436;7.826;2023-12-22T05:04:31;5.00;;;0.93;;
81154;SDS011;70631;50.436;7.826;2023-12-22T05:09:22;4.97;;;1.00;;
81154;SDS011;70631;50.436;7.826;2023-12-22T05:11:50;3.97;;;1.50;;
81154;SDS011;70631;50.436;7.826;2023-12-22T05:14:15;2.17;;;1.20;;
81154;SDS011;70631;50.436;7.826;2023-12-22T05:19:05;8.73;;;1.13;;
81154;SDS011;70631;50.436;7.826;2023-12-22T05:23:56;4.43;;;1.10;;
81154;SDS011;70631;50.436;7.826;2023-12-22T05:28:47;6.87;;;1.67;;
81154;SDS011;70631;50.436;7.826;2023-12-22T05:31:14;7.10;;;1.35;;
81154;SDS011;70631;50.436;7.826;2023-12-22T05:33:39;4.67;;;1.40;;
81154;SDS011;70631;50.436;7.826;2023-12-22T05:38:30;5.37;;;1.47;;
81154;SDS011;70631;50.436;7.826;2023-12-22T05:43:21;7.20;;;1.43;;
81154;SDS011;70631;50.436;7.826;2023-12-22T05:48:11;11.90;;;1.73;;
81154;SDS011;70631;50.436;7.826;2023-12-22T05:50:36;4.87;;;1.50;;
81154;SDS011;70631;50.436;7.826;2023-12-22T05:53:02;6.75;;;2.15;;
81154;SDS011;70631;50.436;7.826;2023-12-22T05:55:27;6.47;;;2.20;;
81154;SDS011;70631;50.436;7.826;2023-12-22T05:57:52;4.63;;;1.50;;
81154;SDS011;70631;50.436;7.826;2023-12-22T06:02:44;6.18;;;1.35;;
81154;SDS011;70631;50.436;7.826;2023-12-22T06:07:34;5.57;;;2.10;;
81154;SDS011;70631;50.436;7.826;2023-12-22T06:09:59;8.07;;;1.70;;
81154;SDS011;70631;50.436;7.826;2023-12-22T06:12:25;9.37;;;2.07;;
81154;SDS011;70631;50.436;7.826;2023-12-22T06:17:15;8.43;;;1.30;;
81154;SDS011;70631;50.436;7.826;2023-12-22T06:19:41;10.60;;;2.13;;
81154;SDS011;70631;50.436;7.826;2023-12-22T06:22:06;4.73;;;1.20;;
81154;SDS011;70631;50.436;7.826;2023-12-22T06:26:56;3.00;;;1.20;;
81154;SDS011;70631;50.436;7.826;2023-12-22T06:29:22;11.50;;;2.30;;
81154;SDS011;70631;50.436;7.826;2023-12-22T06:31:48;7.93;;;2.03;;
81154;SDS011;70631;50.436;7.826;2023-12-22T06:34:15;6.70;;;2.45;;
81154;SDS011;70631;50.436;7.826;2023-12-22T06:36:41;7.50;;;2.42;;
81154;SDS011;70631;50.436;7.826;2023-12-22T06:39:07;10.77;;;2.95;;
81154;SDS011;70631;50.436;7.826;2023-12-22T06:41:33;10.30;;;5.30;;
81154;SDS011;70631;50.436;7.826;2023-12-22T06:43:58;6.60;;;2.77;;
81154;SDS011;70631;50.436;7.826;2023-12-22T06:46:27;9.02;;;2.60;;
81154;SDS011;70631;50.436;7.826;2023-12-22T06:48:54;8.18;;;2.03;;
81154;SDS011;70631;50.436;7.826;2023-12-22T06:51:20;3.25;;;2.47;;
81154;SDS011;70631;50.436;7.826;2023-12-22T06:53:47;9.82;;;1.95;;
81154;SDS011;70631;50.436;7.826;2023-12-22T06:58:42;4.93;;;1.42;;
81154;SDS011;70631;50.436;7.826;2023-12-22T07:01:07;11.63;;;2.40;;
81154;SDS011;70631;50.436;7.826;2023-12-22T07:03:32;6.93;;;3.57;;
81154;SDS011;70631;50.436;7.826;2023-12-22T07:05:57;7.07;;;2.73;;
81154;SDS011;70631;50.436;7.826;2023-12-22T07:10:48;9.53;;;2.87;;
81154;SDS011;70631;50.436;7.826;2023-12-22T07:13:13;10.23;;;2.90;;
81154;SDS011;70631;50.436;7.826;2023-12-22T07:15:38;7.20;;;2.37;;
81154;SDS011;70631;50.436;7.826;2023-12-22T07:18:03;9.37;;;2.50;;
81154;SDS011;70631;50.436;7.826;2023-12-22T07:20:29;10.60;;;4.70;;
81154;SDS011;70631;50.436;7.826;2023-12-22T07:22:55;6.07;;;2.80;;
81154;SDS011;70631;50.436;7.826;2023-12-22T07:25:21;7.43;;;2.50;;
81154;SDS011;70631;50.436;7.826;2023-12-22T07:27:46;7.67;;;3.10;;
81154;SDS011;70631;50.436;7.826;2023-12-22T07:30:12;8.77;;;4.18;;
81154;SDS011;70631;50.436;7.826;2023-12-22T07:32:40;10.15;;;4.63;;
81154;SDS011;70631;50.436;7.826;2023-12-22T07:35:06;8.20;;;1.98;;
81154;SDS011;70631;50.436;7.826;2023-12-22T07:37:34;10.68;;;6.07;;
81154;SDS011;70631;50.436;7.826;2023-12-22T07:40:00;6.25;;;2.47;;
81154;SDS011;70631;50.436;7.826;2023-12-22T07:42:25;6.80;;;2.10;;
81154;SDS011;70631;50.436;7.826;2023-12-22T07:44:51;1.97;;;1.17;;
81154;SDS011;70631;50.436;7.826;2023-12-22T07:49:41;2.92;;;1.20;;
81154;SDS011;70631;50.436;7.826;2023-12-22T07:52:07;2.72;;;1.33;;
81154;SDS011;70631;50.436;7.826;2023-12-22T07:56:57;3.80;;;1.93;;
81154;SDS011;70631;50.436;7.826;2023-12-22T07:59:23;3.27;;;1.87;;
81154;SDS011;70631;50.436;7.826;2023-12-22T08:01:49;2.08;;;1.40;;
81154;SDS011;70631;50.436;7.826;2023-12-22T08:04:14;5.23;;;2.83;;
81154;SDS011;70631;50.436;7.826;2023-12-22T08:09:05;4.60;;;1.13;;
81154;SDS011;70631;50.436;7.826;2023-12-22T08:11:31;5.82;;;3.42;;
81154;SDS011;70631;50.436;7.826;2023-12-22T08:16:21;6.87;;;2.00;;
81154;SDS011;70631;50.436;7.826;2023-12-22T08:21:11;6.00;;;3.53;;
81154;SDS011;70631;50.436;7.826;2023-12-22T08:23:38;5.78;;;2.15;;
81154;SDS011;70631;50.436;7.826;2023-12-22T08:26:04;6.83;;;5.03;;
81154;SDS011;70631;50.436;7.826;2023-12-22T08:30:54;4.40;;;2.60;;
81154;SDS011;70631;50.436;7.826;2023-12-22T08:33:19;3.83;;;1.70;;
81154;SDS011;70631;50.436;7.826;2023-12-22T08:35:45;5.80;;;3.27;;
81154;SDS011;70631;50.436;7.826;2023-12-22T08:38:10;6.67;;;2.27;;
81154;SDS011;70631;50.436;7.826;2023-12-22T08:40:38;7.80;;;2.63;;
81154;SDS011;70631;50.436;7.826;2023-12-22T08:43:03;7.17;;;1.53;;
81154;SDS011;70631;50.436;7.826;2023-12-22T08:45:29;7.05;;;1.65;;
81154;SDS011;70631;50.436;7.826;2023-12-22T08:47:55;10.27;;;2.53;;
81154;SDS011;70631;50.436;7.826;2023-12-22T08:50:21;7.70;;;1.55;;
81154;SDS011;70631;50.436;7.826;2023-12-22T08:52:46;5.82;;;1.60;;
81154;SDS011;70631;50.436;7.826;2023-12-22T08:55:11;3.47;;;1.80;;
81154;SDS011;70631;50.436;7.826;2023-12-22T08:57:37;8.63;;;2.07;;
81154;SDS011;70631;50.436;7.826;2023-12-22T09:00:02;5.63;;;1.50;;
81154;SDS011;70631;50.436;7.826;2023-12-22T09:02:28;8.60;;;2.45;;
81154;SDS011;70631;50.436;7.826;2023-12-22T09:04:54;2.63;;;1.25;;
81154;SDS011;70631;50.436;7.826;2023-12-22T09:07:19;7.40;;;1.73;;
81154;SDS011;70631;50.436;7.826;2023-12-22T09:09:45;5.93;;;1.80;;
81154;SDS011;70631;50.436;7.826;2023-12-22T09:12:10;6.17;;;1.70;;
81154;SDS011;70631;50.436;7.826;2023-12-22T09:14:35;11.00;;;1.97;;
81154;SDS011;70631;50.436;7.826;2023-12-22T09:17:01;8.37;;;1.77;;
81154;SDS011;70631;50.436;7.826;2023-12-22T09:19:26;5.80;;;1.53;;
81154;SDS011;70631;50.436;7.826;2023-12-22T09:21:52;8.30;;;2.70;;
81154;SDS011;70631;50.436;7.826;2023-12-22T09:24:17;7.23;;;1.70;;
81154;SDS011;70631;50.436;7.826;2023-12-22T09:26:42;6.83;;;2.07;;
81154;SDS011;70631;50.436;7.826;2023-12-22T09:29:07;6.67;;;1.30;;
81154;SDS011;70631;50.436;7.826;2023-12-22T09:31:33;4.47;;;1.10;;
81154;SDS011;70631;50.436;7.826;2023-12-22T09:33:58;4.90;;;1.93;;
81154;SDS011;70631;50.436;7.826;2023-12-22T09:36:23;8.83;;;2.10;;
81154;SDS011;70631;50.436;7.826;2023-12-22T09:38:48;7.03;;;1.80;;
81154;SDS011;70631;50.436;7.826;2023-12-22T09:41:14;5.47;;;1.60;;
81154;SDS011;70631;50.436;7.826;2023-12-22T09:43:40;6.07;;;2.00;;
81154;SDS011;70631;50.436;7.826;2023-12-22T09:46:07;9.43;;;1.95;;
81154;SDS011;70631;50.436;7.826;2023-12-22T09:48:33;13.10;;;1.33;;
81154;SDS011;70631;50.436;7.826;2023-12-22T09:51:04;7.90;;;2.05;;
81154;SDS011;70631;50.436;7.826;2023-12-22T09:53:30;7.78;;;2.17;;
81154;SDS011;70631;50.436;7.826;2023-12-22T09:55:56;6.78;;;2.13;;
81154;SDS011;70631;50.436;7.826;2023-12-22T09:58:23;11.68;;;2.70;;
81154;SDS011;70631;50.436;7.826;2023-12-22T10:00:48;7.30;;;1.73;;
81154;SDS011;70631;50.436;7.826;2023-12-22T10:03:15;13.63;;;2.60;;
81154;SDS011;70631;50.436;7.826;2023-12-22T10:05:41;8.55;;;2.00;;
81154;SDS011;70631;50.436;7.826;2023-12-22T10:08:08;9.00;;;2.60;;
81154;SDS011;70631;50.436;7.826;2023-12-22T10:10:35;6.50;;;2.10;;
81154;SDS011;70631;50.436;7.826;2023-12-22T10:13:02;4.28;;;1.60;;
81154;SDS011;70631;50.436;7.826;2023-12-22T10:15:32;5.68;;;1.67;;
81154;SDS011;70631;50.436;7.826;2023-12-22T10:17:58;15.25;;;2.08;;
81154;SDS011;70631;50.436;7.826;2023-12-22T10:20:23;8.90;;;1.97;;
81154;SDS011;70631;50.436;7.826;2023-12-22T10:22:48;8.80;;;2.00;;
81154;SDS011;70631;50.436;7.826;2023-12-22T10:25:20;9.03;;;2.23;;
81154;SDS011;70631;50.436;7.826;2023-12-22T10:27:46;9.40;;;2.33;;
81154;SDS011;70631;50.436;7.826;2023-12-22T10:30:11;12.18;;;2.00;;
81154;SDS011;70631;50.436;7.826;2023-12-22T10:32:40;8.90;;;1.90;;
81154;SDS011;70631;50.436;7.826;2023-12-22T10:35:09;4.00;;;2.10;;
81154;SDS011;70631;50.436;7.826;2023-12-22T10:37:34;10.45;;;1.83;;
81154;SDS011;70631;50.436;7.826;2023-12-22T10:40:00;11.40;;;1.90;;
81154;SDS011;70631;50.436;7.826;2023-12-22T10:42:25;11.02;;;2.63;;
81154;SDS011;70631;50.436;7.826;2023-12-22T10:44:51;5.65;;;1.70;;
81154;SDS011;70631;50.436;7.826;2023-12-22T10:47:18;6.55;;;1.88;;
81154;SDS011;70631;50.436;7.826;2023-12-22T10:49:44;7.30;;;1.50;;
81154;SDS011;70631;50.436;7.826;2023-12-22T10:52:15;4.18;;;1.40;;
81154;SDS011;70631;50.436;7.826;2023-12-22T10:54:42;6.65;;;1.85;;
81154;SDS011;70631;50.436;7.826;2023-12-22T10:57:09;7.97;;;1.77;;
81154;SDS011;70631;50.436;7.826;2023-12-22T10:59:35;6.38;;;2.88;;
81154;SDS011;70631;50.436;7.826;2023-12-22T11:02:05;6.22;;;1.65;;
81154;SDS011;70631;50.436;7.826;2023-12-22T11:04:36;6.88;;;1.90;;
81154;SDS011;70631;50.436;7.826;2023-12-22T11:07:03;4.22;;;1.70;;
81154;SDS011;70631;50.436;7.826;2023-12-22T11:09:30;6.25;;;1.20;;
81154;SDS011;70631;50.436;7.826;2023-12-22T11:11:56;7.78;;;1.70;;
81154;SDS011;70631;50.436;7.826;2023-12-22T11:14:22;4.38;;;1.77;;
81154;SDS011;70631;50.436;7.826;2023-12-22T11:16:48;8.07;;;1.83;;
81154;SDS011;70631;50.436;7.826;2023-12-22T11:19:16;5.25;;;1.55;;
81154;SDS011;70631;50.436;7.826;2023-12-22T11:21:43;4.32;;;1.60;;
81154;SDS011;70631;50.436;7.826;2023-12-22T11:24:10;4.47;;;1.50;;
81154;SDS011;70631;50.436;7.826;2023-12-22T11:26:37;3.92;;;1.05;;
81154;SDS011;70631;50.436;7.826;2023-12-22T11:29:05;2.95;;;1.50;;
81154;SDS011;70631;50.436;7.826;2023-12-22T11:31:32;2.72;;;1.30;;
81154;SDS011;70631;50.436;7.826;2023-12-22T11:33:58;2.85;;;1.83;;
81154;SDS011;70631;50.436;7.826;2023-12-22T11:36:24;2.58;;;1.48;;
81154;SDS011;70631;50.436;7.826;2023-12-22T11:38:49;4.38;;;1.17;;
81154;SDS011;70631;50.436;7.826;2023-12-22T11:41:19;2.23;;;0.90;;
81154;SDS011;70631;50.436;7.826;2023-12-22T11:43:50;3.03;;;1.00;;
81154;SDS011;70631;50.436;7.826;2023-12-22T11:46:16;3.42;;;1.25;;
81154;SDS011;70631;50.436;7.826;2023-12-22T11:48:48;3.95;;;0.75;;
81154;SDS011;70631;50.436;7.826;2023-12-22T11:51:16;3.35;;;1.08;;
81154;SDS011;70631;50.436;7.826;2023-12-22T11:53:43;2.72;;;0.68;;
81154;SDS011;70631;50.436;7.826;2023-12-22T11:56:09;3.47;;;0.95;;
81154;SDS011;70631;50.436;7.826;2023-12-22T11:58:42;3.35;;;0.82;;
81154;SDS011;70631;50.436;7.826;2023-12-22T12:01:15;2.53;;;1.20;;
81154;SDS011;70631;50.436;7.826;2023-12-22T12:03:49;1.38;;;0.93;;
81154;SDS011;70631;50.436;7.826;2023-12-22T12:06:21;2.72;;;1.00;;
81154;SDS011;70631;50.436;7.826;2023-12-22T12:08:56;0.90;;;0.57;;
81154;SDS011;70631;50.436;7.826;2023-12-22T12:11:22;2.53;;;0.60;;
81154;SDS011;70631;50.436;7.826;2023-12-22T12:13:49;1.23;;;0.65;;
81154;SDS011;70631;50.436;7.826;2023-12-22T12:16:19;2.53;;;1.00;;
81154;SDS011;70631;50.436;7.826;2023-12-22T12:18:49;1.58;;;0.68;;
81154;SDS011;70631;50.436;7.826;2023-12-22T12:21:15;0.93;;;0.82;;
81154;SDS011;70631;50.436;7.826;2023-12-22T12:23:41;1.63;;;1.08;;
81154;SDS011;70631;50.436;7.826;2023-12-22T12:26:07;2.03;;;0.85;;
81154;SDS011;70631;50.436;7.826;2023-12-22T12:28:34;3.00;;;1.30;;
81154;SDS011;70631;50.436;7.826;2023-12-22T12:31:05;4.22;;;1.23;;
81154;SDS011;70631;50.436;7.826;2023-12-22T12:33:31;1.95;;;0.80;;
81154;SDS011;70631;50.436;7.826;2023-12-22T12:35:58;2.40;;;0.90;;
81154;SDS011;70631;50.436;7.826;2023-12-22T12:41:05;1.73;;;0.98;;
81154;SDS011;70631;50.436;7.826;2023-12-22T12:43:30;1.10;;;0.90;;
81154;SDS011;70631;50.436;7.826;2023-12-22T12:46:02;2.63;;;0.85;;
81154;SDS011;70631;50.436;7.826;2023-12-22T12:48:30;2.00;;;1.00;;
81154;SDS011;70631;50.436;7.826;2023-12-22T12:51:00;0.93;;;0.50;;
81154;SDS011;70631;50.436;7.826;2023-12-22T12:55:57;2.55;;;0.90;;
81154;SDS011;70631;50.436;7.826;2023-12-22T12:58:27;1.85;;;0.60;;
81154;SDS011;70631;50.436;7.826;2023-12-22T13:00:53;0.70;;;0.43;;
81154;SDS011;70631;50.436;7.826;2023-12-22T13:03:28;0.90;;;0.40;;
81154;SDS011;70631;50.436;7.826;2023-12-22T13:05:59;1.90;;;0.80;;
81154;SDS011;70631;50.436;7.826;2023-12-22T13:08:30;1.02;;;0.50;;
81154;SDS011;70631;50.436;7.826;2023-12-22T13:11:02;2.40;;;0.70;;
81154;SDS011;70631;50.436;7.826;2023-12-22T13:13:27;1.20;;;0.60;;
81154;SDS011;70631;50.436;7.826;2023-12-22T13:15:53;1.40;;;0.60;;
81154;SDS011;70631;50.436;7.826;2023-12-22T13:18:18;1.10;;;0.53;;
81154;SDS011;70631;50.436;7.826;2023-12-22T13:20:43;1.40;;;0.68;;
81154;SDS011;70631;50.436;7.826;2023-12-22T13:23:09;0.93;;;0.60;;
81154;SDS011;70631;50.436;7.826;2023-12-22T13:25:40;0.77;;;0.70;;
81154;SDS011;70631;50.436;7.826;2023-12-22T13:28:05;1.90;;;1.00;;
81154;SDS011;70631;50.436;7.826;2023-12-22T13:30:37;2.70;;;0.80;;
81154;SDS011;70631;50.436;7.826;2023-12-22T13:33:05;2.58;;;0.80;;
81154;SDS011;70631;50.436;7.826;2023-12-22T13:35:31;1.92;;;0.85;;
81154;SDS011;70631;50.436;7.826;2023-12-22T13:37:57;1.27;;;0.82;;
81154;SDS011;70631;50.436;7.826;2023-12-22T13:40:23;3.72;;;1.73;;
81154;SDS011;70631;50.436;7.826;2023-12-22T13:42:58;1.48;;;0.85;;
81154;SDS011;70631;50.436;7.826;2023-12-22T13:45:26;1.75;;;1.15;;
81154;SDS011;70631;50.436;7.826;2023-12-22T13:47:52;3.72;;;1.35;;
81154;SDS011;70631;50.436;7.826;2023-12-22T13:50:18;1.97;;;1.20;;
81154;SDS011;70631;50.436;7.826;2023-12-22T13:52:44;2.35;;;0.73;;
81154;SDS011;70631;50.436;7.826;2023-12-22T13:55:10;2.25;;;1.20;;
81154;SDS011;70631;50.436;7.826;2023-12-22T13:57:36;2.30;;;1.20;;
81154;SDS011;70631;50.436;7.826;2023-12-22T14:00:01;1.17;;;1.07;;
81154;SDS011;70631;50.436;7.826;2023-12-22T14:02:29;2.17;;;1.83;;
81154;SDS011;70631;50.436;7.826;2023-12-22T14:04:54;1.77;;;1.67;;
81154;SDS011;70631;50.436;7.826;2023-12-22T14:07:19;2.57;;;1.93;;
81154;SDS011;70631;50.436;7.826;2023-12-22T14:09:44;3.07;;;2.77;;
81154;SDS011;70631;50.436;7.826;2023-12-22T14:12:10;3.10;;;1.90;;
81154;SDS011;70631;50.436;7.826;2023-12-22T14:14:35;4.00;;;1.43;;
81154;SDS011;70631;50.436;7.826;2023-12-22T14:17:00;4.17;;;1.73;;
81154;SDS011;70631;50.436;7.826;2023-12-22T14:19:26;2.17;;;1.97;;
81154;SDS011;70631;50.436;7.826;2023-12-22T14:21:51;2.57;;;1.53;;
81154;SDS011;70631;50.436;7.826;2023-12-22T14:24:16;1.83;;;1.47;;
81154;SDS011;70631;50.436;7.826;2023-12-22T14:26:54;2.30;;;1.73;;
81154;SDS011;70631;50.436;7.826;2023-12-22T14:29:21;3.10;;;1.38;;
81154;SDS011;70631;50.436;7.826;2023-12-22T14:31:48;4.90;;;2.92;;
81154;SDS011;70631;50.436;7.826;2023-12-22T14:34:14;2.38;;;1.95;;
81154;SDS011;70631;50.436;7.826;2023-12-22T14:36:39;3.03;;;1.92;;
81154;SDS011;70631;50.436;7.826;2023-12-22T14:39:05;5.03;;;1.20;;
81154;SDS011;70631;50.436;7.826;2023-12-22T14:41:30;2.42;;;1.65;;
81154;SDS011;70631;50.436;7.826;2023-12-22T14:43:56;2.13;;;1.38;;
81154;SDS011;70631;50.436;7.826;2023-12-22T14:46:21;2.73;;;1.00;;
81154;SDS011;70631;50.436;7.826;2023-12-22T14:48:46;5.00;;;1.33;;
81154;SDS011;70631;50.436;7.826;2023-12-22T14:51:11;4.03;;;1.30;;
81154;SDS011;70631;50.436;7.826;2023-12-22T14:53:36;2.20;;;2.00;;
81154;SDS011;70631;50.436;7.826;2023-12-22T14:56:02;3.03;;;1.10;;
81154;SDS011;70631;50.436;7.826;2023-12-22T14:58:27;2.72;;;2.13;;
81154;SDS011;70631;50.436;7.826;2023-12-22T15:00:53;1.35;;;1.00;;
81154;SDS011;70631;50.436;7.826;2023-12-22T15:03:18;3.37;;;1.10;;
81154;SDS011;70631;50.436;7.826;2023-12-22T15:05:44;2.77;;;1.33;;
81154;SDS011;70631;50.436;7.826;2023-12-22T15:08:09;2.03;;;0.90;;
81154;SDS011;70631;50.436;7.826;2023-12-22T15:10:34;1.90;;;1.70;;
81154;SDS011;70631;50.436;7.826;2023-12-22T15:13:00;1.90;;;1.17;;
81154;SDS011;70631;50.436;7.826;2023-12-22T15:15:25;3.10;;;1.17;;
81154;SDS011;70631;50.436;7.826;2023-12-22T15:17:50;2.60;;;1.13;;
81154;SDS011;70631;50.436;7.826;2023-12-22T15:20:16;1.35;;;0.80;;
81154;SDS011;70631;50.436;7.826;2023-12-22T15:22:41;2.37;;;1.30;;
81154;SDS011;70631;50.436;7.826;2023-12-22T15:25:06;2.70;;;1.03;;
81154;SDS011;70631;50.436;7.826;2023-12-22T15:27:32;2.97;;;1.02;;
81154;SDS011;70631;50.436;7.826;2023-12-22T15:29:57;1.42;;;0.75;;
81154;SDS011;70631;50.436;7.826;2023-12-22T15:32:23;6.47;;;0.70;;
81154;SDS011;70631;50.436;7.826;2023-12-22T15:34:48;2.57;;;1.20;;
81154;SDS011;70631;50.436;7.826;2023-12-22T15:37:13;2.10;;;1.10;;
81154;SDS011;70631;50.436;7.826;2023-12-22T15:39:39;2.00;;;0.77;;
81154;SDS011;70631;50.436;7.826;2023-12-22T15:42:04;1.57;;;0.60;;
81154;SDS011;70631;50.436;7.826;2023-12-22T15:44:29;1.48;;;0.70;;
81154;SDS011;70631;50.436;7.826;2023-12-22T15:46:54;1.70;;;0.80;;
81154;SDS011;70631;50.436;7.826;2023-12-22T15:49:20;2.73;;;0.87;;
81154;SDS011;70631;50.436;7.826;2023-12-22T15:51:45;1.23;;;0.77;;
81154;SDS011;70631;50.436;7.826;2023-12-22T15:54:11;2.13;;;0.60;;
81154;SDS011;70631;50.436;7.826;2023-12-22T15:56:36;1.33;;;0.90;;
81154;SDS011;70631;50.436;7.826;2023-12-22T15:59:01;1.00;;;0.53;;
81154;SDS011;70631;50.436;7.826;2023-12-22T16:01:27;2.07;;;1.10;;
81154;SDS011;70631;50.436;7.826;2023-12-22T16:03:52;3.07;;;1.07;;
81154;SDS011;70631;50.436;7.826;2023-12-22T16:06:17;3.23;;;1.60;;
81154;SDS011;70631;50.436;7.826;2023-12-22T16:08:43;2.35;;;1.20;;
81154;SDS011;70631;50.436;7.826;2023-12-22T16:11:09;3.08;;;1.35;;
81154;SDS011;70631;50.436;7.826;2023-12-22T16:13:34;1.58;;;1.10;;
81154;SDS011;70631;50.436;7.826;2023-12-22T16:16:00;1.80;;;1.17;;
81154;SDS011;70631;50.436;7.826;2023-12-22T16:18:26;3.95;;;1.00;;
81154;SDS011;70631;50.436;7.826;2023-12-22T16:20:52;1.10;;;1.00;;
81154;SDS011;70631;50.436;7.826;2023-12-22T16:23:17;2.30;;;0.93;;
81154;SDS011;70631;50.436;7.826;2023-12-22T16:25:50;4.60;;;1.08;;
81154;SDS011;70631;50.436;7.826;2023-12-22T16:28:18;2.10;;;1.00;;
81154;SDS011;70631;50.436;7.826;2023-12-22T16:30:43;3.28;;;0.90;;
81154;SDS011;70631;50.436;7.826;2023-12-22T16:33:09;2.08;;;0.90;;
81154;SDS011;70631;50.436;7.826;2023-12-22T16:35:34;2.57;;;1.10;;
81154;SDS011;70631;50.436;7.826;2023-12-22T16:37:59;1.40;;;1.07;;
81154;SDS011;70631;50.436;7.826;2023-12-22T16:40:24;4.13;;;1.37;;
81154;SDS011;70631;50.436;7.826;2023-12-22T16:42:50;2.43;;;0.77;;
81154;SDS011;70631;50.436;7.826;2023-12-22T16:45:15;1.50;;;0.93;;
81154;SDS011;70631;50.436;7.826;2023-12-22T16:47:40;3.00;;;1.00;;
81154;SDS011;70631;50.436;7.826;2023-12-22T16:50:06;2.25;;;0.80;;
81154;SDS011;70631;50.436;7.826;2023-12-22T16:52:32;2.45;;;0.88;;
81154;SDS011;70631;50.436;7.826;2023-12-22T16:54:59;2.10;;;1.02;;
81154;SDS011;70631;50.436;7.826;2023-12-22T16:57:24;3.37;;;1.10;;
81154;SDS011;70631;50.436;7.826;2023-12-22T16:59:49;2.87;;;0.70;;
81154;SDS011;70631;50.436;7.826;2023-12-22T17:02:15;3.08;;;1.40;;
81154;SDS011;70631;50.436;7.826;2023-12-22T17:04:40;4.57;;;1.23;;
81154;SDS011;70631;50.436;7.826;2023-12-22T17:07:06;1.73;;;0.73;;
81154;SDS011;70631;50.436;7.826;2023-12-22T17:09:32;3.03;;;1.00;;
81154;SDS011;70631;50.436;7.826;2023-12-22T17:11:58;1.88;;;0.65;;
81154;SDS011;70631;50.436;7.826;2023-12-22T17:14:23;4.53;;;1.07;;
81154;SDS011;70631;50.436;7.826;2023-12-22T17:16:49;2.87;;;1.43;;
81154;SDS011;70631;50.436;7.826;2023-12-22T17:19:14;2.67;;;0.90;;
81154;SDS011;70631;50.436;7.826;2023-12-22T17:21:39;1.50;;;0.50;;
81154;SDS011;70631;50.436;7.826;2023-12-22T17:24:07;0.95;;;0.65;;
81154;SDS011;70631;50.436;7.826;2023-12-22T17:26:33;2.85;;;0.65;;
81154;SDS011;70631;50.436;7.826;2023-12-22T17:28:58;4.30;;;1.10;;
81154;SDS011;70631;50.436;7.826;2023-12-22T17:31:25;1.20;;;0.68;;
81154;SDS011;70631;50.436;7.826;2023-12-22T17:33:50;1.83;;;1.30;;
81154;SDS011;70631;50.436;7.826;2023-12-22T17:36:16;2.47;;;1.00;;
81154;SDS011;70631;50.436;7.826;2023-12-22T17:38:42;2.08;;;1.17;;
81154;SDS011;70631;50.436;7.826;2023-12-22T17:41:07;4.00;;;1.27;;
81154;SDS011;70631;50.436;7.826;2023-12-22T17:43:33;2.13;;;1.10;;
81154;SDS011;70631;50.436;7.826;2023-12-22T17:45:58;1.83;;;0.93;;